<?xml version="1.0" encoding="UTF-8" standalone="no" ?>
<gpx xmlns="http://www.topografix.com/GPX/1/1" xmlns:xsi="http://www.w3.org/2001/XMLSchema-instance" xsi:schemaLocation="http://www.topografix.com/GPX/1/1 http://www.topografix.com/GPX/1/1/gpx.xsd" version="1.1" creator="VisuGPX - https://www.visugpx.com">
  <metadata>
    <name>marche du 8 mai</name>
    <desc><![CDATA[marche du 8 mai]]></desc>
  </metadata>
  <trk>
    <name><![CDATA[Chronom. 05-MAI-13 09:39:30]]></name>
    <trkseg>
      <trkpt lat="47.91113" lon="7.29168">
        <ele>219.32</ele>
        <time>2013-05-05T07:39:30Z</time>
      </trkpt>
      <trkpt lat="47.91112" lon="7.29168">
        <ele>219.32</ele>
        <time>2013-05-05T07:39:31Z</time>
      </trkpt>
      <trkpt lat="47.91109" lon="7.29162">
        <ele>220.28</ele>
        <time>2013-05-05T07:39:35Z</time>
      </trkpt>
      <trkpt lat="47.91098" lon="7.29136">
        <ele>221.24</ele>
        <time>2013-05-05T07:39:43Z</time>
      </trkpt>
      <trkpt lat="47.91097" lon="7.29132">
        <ele>221.24</ele>
        <time>2013-05-05T07:39:44Z</time>
      </trkpt>
      <trkpt lat="47.91089" lon="7.29083">
        <ele>220.76</ele>
        <time>2013-05-05T07:39:55Z</time>
      </trkpt>
      <trkpt lat="47.91079" lon="7.29039">
        <ele>221.24</ele>
        <time>2013-05-05T07:40:02Z</time>
      </trkpt>
      <trkpt lat="47.91062" lon="7.28994">
        <ele>223.64</ele>
        <time>2013-05-05T07:40:09Z</time>
      </trkpt>
      <trkpt lat="47.91046" lon="7.28916">
        <ele>223.64</ele>
        <time>2013-05-05T07:40:20Z</time>
      </trkpt>
      <trkpt lat="47.91042" lon="7.28873">
        <ele>223.16</ele>
        <time>2013-05-05T07:40:26Z</time>
      </trkpt>
      <trkpt lat="47.91033" lon="7.28799">
        <ele>224.61</ele>
        <time>2013-05-05T07:40:36Z</time>
      </trkpt>
      <trkpt lat="47.91023" lon="7.28734">
        <ele>226.05</ele>
        <time>2013-05-05T07:40:45Z</time>
      </trkpt>
      <trkpt lat="47.91008" lon="7.28642">
        <ele>227.01</ele>
        <time>2013-05-05T07:40:57Z</time>
      </trkpt>
      <trkpt lat="47.90996" lon="7.28566">
        <ele>227.01</ele>
        <time>2013-05-05T07:41:07Z</time>
      </trkpt>
      <trkpt lat="47.90984" lon="7.28483">
        <ele>227.49</ele>
        <time>2013-05-05T07:41:18Z</time>
      </trkpt>
      <trkpt lat="47.90979" lon="7.28444">
        <ele>227.97</ele>
        <time>2013-05-05T07:41:23Z</time>
      </trkpt>
      <trkpt lat="47.9097" lon="7.28367">
        <ele>227.97</ele>
        <time>2013-05-05T07:41:33Z</time>
      </trkpt>
      <trkpt lat="47.90961" lon="7.28272">
        <ele>227.49</ele>
        <time>2013-05-05T07:41:45Z</time>
      </trkpt>
      <trkpt lat="47.9096" lon="7.28264">
        <ele>227.49</ele>
        <time>2013-05-05T07:41:46Z</time>
      </trkpt>
      <trkpt lat="47.90959" lon="7.28234">
        <ele>227.49</ele>
        <time>2013-05-05T07:41:50Z</time>
      </trkpt>
      <trkpt lat="47.90964" lon="7.28194">
        <ele>227.01</ele>
        <time>2013-05-05T07:41:55Z</time>
      </trkpt>
      <trkpt lat="47.90995" lon="7.28114">
        <ele>227.01</ele>
        <time>2013-05-05T07:42:06Z</time>
      </trkpt>
      <trkpt lat="47.91001" lon="7.28068">
        <ele>226.53</ele>
        <time>2013-05-05T07:42:12Z</time>
      </trkpt>
      <trkpt lat="47.90989" lon="7.28015">
        <ele>225.57</ele>
        <time>2013-05-05T07:42:19Z</time>
      </trkpt>
      <trkpt lat="47.90974" lon="7.27942">
        <ele>221.72</ele>
        <time>2013-05-05T07:42:30Z</time>
      </trkpt>
      <trkpt lat="47.90973" lon="7.27937">
        <ele>221.24</ele>
        <time>2013-05-05T07:42:31Z</time>
      </trkpt>
      <trkpt lat="47.90979" lon="7.2793">
        <ele>220.28</ele>
        <time>2013-05-05T07:42:35Z</time>
      </trkpt>
      <trkpt lat="47.91005" lon="7.27956">
        <ele>217.88</ele>
        <time>2013-05-05T07:42:43Z</time>
      </trkpt>
      <trkpt lat="47.91027" lon="7.27966">
        <ele>216.91</ele>
        <time>2013-05-05T07:42:48Z</time>
      </trkpt>
      <trkpt lat="47.91055" lon="7.27974">
        <ele>216.91</ele>
        <time>2013-05-05T07:42:55Z</time>
      </trkpt>
      <trkpt lat="47.91061" lon="7.27952">
        <ele>219.32</ele>
        <time>2013-05-05T07:43:01Z</time>
      </trkpt>
      <trkpt lat="47.9106" lon="7.27943">
        <ele>219.8</ele>
        <time>2013-05-05T07:43:03Z</time>
      </trkpt>
      <trkpt lat="47.91077" lon="7.27935">
        <ele>219.8</ele>
        <time>2013-05-05T07:43:09Z</time>
      </trkpt>
      <trkpt lat="47.91093" lon="7.27968">
        <ele>219.32</ele>
        <time>2013-05-05T07:43:15Z</time>
      </trkpt>
      <trkpt lat="47.911" lon="7.28">
        <ele>219.8</ele>
        <time>2013-05-05T07:43:20Z</time>
      </trkpt>
      <trkpt lat="47.91108" lon="7.28028">
        <ele>221.24</ele>
        <time>2013-05-05T07:43:25Z</time>
      </trkpt>
      <trkpt lat="47.91115" lon="7.28044">
        <ele>220.76</ele>
        <time>2013-05-05T07:43:28Z</time>
      </trkpt>
      <trkpt lat="47.91153" lon="7.28086">
        <ele>220.76</ele>
        <time>2013-05-05T07:43:39Z</time>
      </trkpt>
      <trkpt lat="47.91178" lon="7.28109">
        <ele>219.8</ele>
        <time>2013-05-05T07:43:47Z</time>
      </trkpt>
      <trkpt lat="47.91199" lon="7.28137">
        <ele>220.28</ele>
        <time>2013-05-05T07:43:56Z</time>
      </trkpt>
      <trkpt lat="47.91224" lon="7.28184">
        <ele>220.28</ele>
        <time>2013-05-05T07:44:07Z</time>
      </trkpt>
      <trkpt lat="47.91227" lon="7.28191">
        <ele>220.28</ele>
        <time>2013-05-05T07:44:09Z</time>
      </trkpt>
      <trkpt lat="47.91223" lon="7.28237">
        <ele>217.88</ele>
        <time>2013-05-05T07:44:19Z</time>
      </trkpt>
      <trkpt lat="47.91221" lon="7.28265">
        <ele>216.43</ele>
        <time>2013-05-05T07:44:23Z</time>
      </trkpt>
      <trkpt lat="47.9123" lon="7.28294">
        <ele>216.43</ele>
        <time>2013-05-05T07:44:27Z</time>
      </trkpt>
      <trkpt lat="47.91238" lon="7.28313">
        <ele>216.43</ele>
        <time>2013-05-05T07:44:30Z</time>
      </trkpt>
      <trkpt lat="47.91246" lon="7.28345">
        <ele>216.43</ele>
        <time>2013-05-05T07:44:35Z</time>
      </trkpt>
      <trkpt lat="47.91268" lon="7.28413">
        <ele>218.84</ele>
        <time>2013-05-05T07:44:46Z</time>
      </trkpt>
      <trkpt lat="47.91286" lon="7.28474">
        <ele>219.8</ele>
        <time>2013-05-05T07:44:56Z</time>
      </trkpt>
      <trkpt lat="47.91315" lon="7.2854">
        <ele>219.8</ele>
        <time>2013-05-05T07:45:08Z</time>
      </trkpt>
      <trkpt lat="47.91339" lon="7.28587">
        <ele>219.32</ele>
        <time>2013-05-05T07:45:16Z</time>
      </trkpt>
      <trkpt lat="47.91347" lon="7.2864">
        <ele>219.8</ele>
        <time>2013-05-05T07:45:24Z</time>
      </trkpt>
      <trkpt lat="47.91362" lon="7.28679">
        <ele>218.84</ele>
        <time>2013-05-05T07:45:31Z</time>
      </trkpt>
      <trkpt lat="47.91388" lon="7.28744">
        <ele>219.32</ele>
        <time>2013-05-05T07:45:42Z</time>
      </trkpt>
      <trkpt lat="47.91391" lon="7.28774">
        <ele>219.8</ele>
        <time>2013-05-05T07:45:47Z</time>
      </trkpt>
      <trkpt lat="47.91409" lon="7.28779">
        <ele>220.28</ele>
        <time>2013-05-05T07:45:53Z</time>
      </trkpt>
      <trkpt lat="47.91418" lon="7.28787">
        <ele>220.28</ele>
        <time>2013-05-05T07:45:56Z</time>
      </trkpt>
      <trkpt lat="47.91423" lon="7.28808">
        <ele>220.28</ele>
        <time>2013-05-05T07:46:00Z</time>
      </trkpt>
      <trkpt lat="47.91435" lon="7.28885">
        <ele>217.4</ele>
        <time>2013-05-05T07:46:12Z</time>
      </trkpt>
      <trkpt lat="47.9144" lon="7.2891">
        <ele>215.95</ele>
        <time>2013-05-05T07:46:16Z</time>
      </trkpt>
      <trkpt lat="47.91453" lon="7.28986">
        <ele>217.88</ele>
        <time>2013-05-05T07:46:28Z</time>
      </trkpt>
      <trkpt lat="47.91444" lon="7.29015">
        <ele>218.36</ele>
        <time>2013-05-05T07:46:33Z</time>
      </trkpt>
      <trkpt lat="47.91436" lon="7.29034">
        <ele>217.88</ele>
        <time>2013-05-05T07:46:36Z</time>
      </trkpt>
      <trkpt lat="47.91402" lon="7.29081">
        <ele>217.4</ele>
        <time>2013-05-05T07:46:46Z</time>
      </trkpt>
      <trkpt lat="47.91398" lon="7.29085">
        <ele>217.4</ele>
        <time>2013-05-05T07:46:47Z</time>
      </trkpt>
      <trkpt lat="47.91392" lon="7.2912">
        <ele>216.43</ele>
        <time>2013-05-05T07:46:53Z</time>
      </trkpt>
      <trkpt lat="47.91394" lon="7.29139">
        <ele>217.4</ele>
        <time>2013-05-05T07:46:56Z</time>
      </trkpt>
      <trkpt lat="47.91409" lon="7.292">
        <ele>216.43</ele>
        <time>2013-05-05T07:47:05Z</time>
      </trkpt>
      <trkpt lat="47.91438" lon="7.29285">
        <ele>214.03</ele>
        <time>2013-05-05T07:47:16Z</time>
      </trkpt>
      <trkpt lat="47.91441" lon="7.29292">
        <ele>214.03</ele>
        <time>2013-05-05T07:47:17Z</time>
      </trkpt>
      <trkpt lat="47.91483" lon="7.2937">
        <ele>215.47</ele>
        <time>2013-05-05T07:47:29Z</time>
      </trkpt>
      <trkpt lat="47.91494" lon="7.29388">
        <ele>216.43</ele>
        <time>2013-05-05T07:47:32Z</time>
      </trkpt>
      <trkpt lat="47.91508" lon="7.29413">
        <ele>216.91</ele>
        <time>2013-05-05T07:47:36Z</time>
      </trkpt>
      <trkpt lat="47.9154" lon="7.295">
        <ele>216.91</ele>
        <time>2013-05-05T07:47:48Z</time>
      </trkpt>
      <trkpt lat="47.91564" lon="7.29577">
        <ele>216.43</ele>
        <time>2013-05-05T07:47:59Z</time>
      </trkpt>
      <trkpt lat="47.91585" lon="7.29648">
        <ele>216.43</ele>
        <time>2013-05-05T07:48:09Z</time>
      </trkpt>
      <trkpt lat="47.91608" lon="7.29733">
        <ele>214.99</ele>
        <time>2013-05-05T07:48:21Z</time>
      </trkpt>
      <trkpt lat="47.91628" lon="7.29801">
        <ele>214.99</ele>
        <time>2013-05-05T07:48:31Z</time>
      </trkpt>
      <trkpt lat="47.91629" lon="7.29807">
        <ele>214.99</ele>
        <time>2013-05-05T07:48:32Z</time>
      </trkpt>
      <trkpt lat="47.91642" lon="7.29819">
        <ele>215.47</ele>
        <time>2013-05-05T07:48:36Z</time>
      </trkpt>
      <trkpt lat="47.91712" lon="7.29793">
        <ele>218.84</ele>
        <time>2013-05-05T07:48:52Z</time>
      </trkpt>
      <trkpt lat="47.91725" lon="7.29787">
        <ele>219.32</ele>
        <time>2013-05-05T07:48:55Z</time>
      </trkpt>
      <trkpt lat="47.91748" lon="7.29775">
        <ele>220.28</ele>
        <time>2013-05-05T07:49:00Z</time>
      </trkpt>
      <trkpt lat="47.91797" lon="7.29754">
        <ele>221.72</ele>
        <time>2013-05-05T07:49:10Z</time>
      </trkpt>
      <trkpt lat="47.91852" lon="7.29732">
        <ele>221.72</ele>
        <time>2013-05-05T07:49:21Z</time>
      </trkpt>
      <trkpt lat="47.91905" lon="7.29711">
        <ele>221.24</ele>
        <time>2013-05-05T07:49:32Z</time>
      </trkpt>
      <trkpt lat="47.91964" lon="7.29686">
        <ele>218.84</ele>
        <time>2013-05-05T07:49:44Z</time>
      </trkpt>
      <trkpt lat="47.9201" lon="7.29668">
        <ele>217.4</ele>
        <time>2013-05-05T07:49:54Z</time>
      </trkpt>
      <trkpt lat="47.92065" lon="7.29646">
        <ele>217.4</ele>
        <time>2013-05-05T07:50:06Z</time>
      </trkpt>
      <trkpt lat="47.92091" lon="7.29635">
        <ele>217.4</ele>
        <time>2013-05-05T07:50:12Z</time>
      </trkpt>
      <trkpt lat="47.92148" lon="7.29622">
        <ele>216.91</ele>
        <time>2013-05-05T07:50:24Z</time>
      </trkpt>
      <trkpt lat="47.92188" lon="7.29613">
        <ele>217.88</ele>
        <time>2013-05-05T07:50:34Z</time>
      </trkpt>
      <trkpt lat="47.92195" lon="7.29611">
        <ele>218.36</ele>
        <time>2013-05-05T07:50:36Z</time>
      </trkpt>
      <trkpt lat="47.92219" lon="7.29607">
        <ele>218.36</ele>
        <time>2013-05-05T07:50:42Z</time>
      </trkpt>
      <trkpt lat="47.9224" lon="7.29604">
        <ele>218.36</ele>
        <time>2013-05-05T07:50:47Z</time>
      </trkpt>
      <trkpt lat="47.92292" lon="7.29592">
        <ele>218.84</ele>
        <time>2013-05-05T07:50:59Z</time>
      </trkpt>
      <trkpt lat="47.92296" lon="7.29591">
        <ele>218.84</ele>
        <time>2013-05-05T07:51:00Z</time>
      </trkpt>
      <trkpt lat="47.92313" lon="7.29587">
        <ele>218.84</ele>
        <time>2013-05-05T07:51:04Z</time>
      </trkpt>
      <trkpt lat="47.92362" lon="7.29575">
        <ele>219.32</ele>
        <time>2013-05-05T07:51:15Z</time>
      </trkpt>
      <trkpt lat="47.92408" lon="7.29565">
        <ele>218.36</ele>
        <time>2013-05-05T07:51:25Z</time>
      </trkpt>
      <trkpt lat="47.92412" lon="7.29564">
        <ele>218.36</ele>
        <time>2013-05-05T07:51:26Z</time>
      </trkpt>
      <trkpt lat="47.92456" lon="7.29554">
        <ele>217.4</ele>
        <time>2013-05-05T07:51:36Z</time>
      </trkpt>
      <trkpt lat="47.92515" lon="7.29539">
        <ele>216.43</ele>
        <time>2013-05-05T07:51:49Z</time>
      </trkpt>
      <trkpt lat="47.92525" lon="7.29537">
        <ele>216.43</ele>
        <time>2013-05-05T07:51:51Z</time>
      </trkpt>
      <trkpt lat="47.92542" lon="7.29533">
        <ele>215.95</ele>
        <time>2013-05-05T07:51:55Z</time>
      </trkpt>
      <trkpt lat="47.92592" lon="7.29521">
        <ele>214.51</ele>
        <time>2013-05-05T07:52:06Z</time>
      </trkpt>
      <trkpt lat="47.92599" lon="7.29521">
        <ele>214.51</ele>
        <time>2013-05-05T07:52:08Z</time>
      </trkpt>
      <trkpt lat="47.92599" lon="7.29534">
        <ele>214.03</ele>
        <time>2013-05-05T07:52:12Z</time>
      </trkpt>
      <trkpt lat="47.92572" lon="7.29571">
        <ele>212.11</ele>
        <time>2013-05-05T07:52:20Z</time>
      </trkpt>
      <trkpt lat="47.92558" lon="7.2959">
        <ele>212.11</ele>
        <time>2013-05-05T07:52:24Z</time>
      </trkpt>
      <trkpt lat="47.92526" lon="7.29638">
        <ele>213.07</ele>
        <time>2013-05-05T07:52:34Z</time>
      </trkpt>
      <trkpt lat="47.9252" lon="7.29648">
        <ele>213.07</ele>
        <time>2013-05-05T07:52:36Z</time>
      </trkpt>
      <trkpt lat="47.92487" lon="7.29709">
        <ele>214.51</ele>
        <time>2013-05-05T07:52:47Z</time>
      </trkpt>
      <trkpt lat="47.92484" lon="7.29714">
        <ele>214.51</ele>
        <time>2013-05-05T07:52:48Z</time>
      </trkpt>
      <trkpt lat="47.9248" lon="7.29772">
        <ele>214.99</ele>
        <time>2013-05-05T07:52:56Z</time>
      </trkpt>
      <trkpt lat="47.92482" lon="7.29809">
        <ele>214.99</ele>
        <time>2013-05-05T07:53:03Z</time>
      </trkpt>
      <trkpt lat="47.92481" lon="7.29813">
        <ele>214.99</ele>
        <time>2013-05-05T07:53:04Z</time>
      </trkpt>
      <trkpt lat="47.92467" lon="7.29827">
        <ele>213.07</ele>
        <time>2013-05-05T07:53:14Z</time>
      </trkpt>
      <trkpt lat="47.92462" lon="7.29833">
        <ele>212.59</ele>
        <time>2013-05-05T07:53:23Z</time>
      </trkpt>
      <trkpt lat="47.92452" lon="7.29839">
        <ele>210.67</ele>
        <time>2013-05-05T07:53:33Z</time>
      </trkpt>
      <trkpt lat="47.92452" lon="7.29844">
        <ele>211.15</ele>
        <time>2013-05-05T07:53:38Z</time>
      </trkpt>
      <trkpt lat="47.92452" lon="7.2985">
        <ele>210.67</ele>
        <time>2013-05-05T07:53:48Z</time>
      </trkpt>
      <trkpt lat="47.92452" lon="7.29852">
        <ele>211.15</ele>
        <time>2013-05-05T07:54:01Z</time>
      </trkpt>
      <trkpt lat="47.92451" lon="7.29852">
        <ele>212.59</ele>
        <time>2013-05-05T07:54:18Z</time>
      </trkpt>
      <trkpt lat="47.92452" lon="7.29852">
        <ele>210.19</ele>
        <time>2013-05-05T07:54:37Z</time>
      </trkpt>
      <trkpt lat="47.92452" lon="7.29852">
        <ele>209.7</ele>
        <time>2013-05-05T07:54:55Z</time>
      </trkpt>
      <trkpt lat="47.92452" lon="7.29852">
        <ele>210.19</ele>
        <time>2013-05-05T07:55:10Z</time>
      </trkpt>
      <trkpt lat="47.92451" lon="7.29852">
        <ele>210.67</ele>
        <time>2013-05-05T07:55:23Z</time>
      </trkpt>
      <trkpt lat="47.92451" lon="7.29853">
        <ele>210.19</ele>
        <time>2013-05-05T07:55:39Z</time>
      </trkpt>
      <trkpt lat="47.92453" lon="7.2986">
        <ele>210.19</ele>
        <time>2013-05-05T07:55:49Z</time>
      </trkpt>
      <trkpt lat="47.9245" lon="7.29865">
        <ele>210.19</ele>
        <time>2013-05-05T07:56:00Z</time>
      </trkpt>
      <trkpt lat="47.92445" lon="7.29868">
        <ele>211.15</ele>
        <time>2013-05-05T07:56:10Z</time>
      </trkpt>
      <trkpt lat="47.92442" lon="7.29869">
        <ele>210.19</ele>
        <time>2013-05-05T07:56:19Z</time>
      </trkpt>
      <trkpt lat="47.92441" lon="7.29868">
        <ele>210.19</ele>
        <time>2013-05-05T07:56:33Z</time>
      </trkpt>
      <trkpt lat="47.92439" lon="7.29869">
        <ele>210.67</ele>
        <time>2013-05-05T07:56:35Z</time>
      </trkpt>
      <trkpt lat="47.92434" lon="7.29873">
        <ele>210.19</ele>
        <time>2013-05-05T07:56:39Z</time>
      </trkpt>
      <trkpt lat="47.92415" lon="7.29884">
        <ele>209.22</ele>
        <time>2013-05-05T07:56:49Z</time>
      </trkpt>
      <trkpt lat="47.92389" lon="7.29902">
        <ele>209.22</ele>
        <time>2013-05-05T07:57:00Z</time>
      </trkpt>
      <trkpt lat="47.92365" lon="7.2992">
        <ele>209.22</ele>
        <time>2013-05-05T07:57:10Z</time>
      </trkpt>
      <trkpt lat="47.92348" lon="7.29934">
        <ele>210.67</ele>
        <time>2013-05-05T07:57:17Z</time>
      </trkpt>
      <trkpt lat="47.9235" lon="7.2995">
        <ele>211.15</ele>
        <time>2013-05-05T07:57:21Z</time>
      </trkpt>
      <trkpt lat="47.92357" lon="7.29958">
        <ele>211.15</ele>
        <time>2013-05-05T07:57:24Z</time>
      </trkpt>
      <trkpt lat="47.92364" lon="7.30009">
        <ele>213.55</ele>
        <time>2013-05-05T07:57:33Z</time>
      </trkpt>
      <trkpt lat="47.92372" lon="7.30062">
        <ele>214.03</ele>
        <time>2013-05-05T07:57:43Z</time>
      </trkpt>
      <trkpt lat="47.92388" lon="7.3008">
        <ele>212.59</ele>
        <time>2013-05-05T07:57:49Z</time>
      </trkpt>
      <trkpt lat="47.92411" lon="7.30065">
        <ele>211.63</ele>
        <time>2013-05-05T07:57:56Z</time>
      </trkpt>
      <trkpt lat="47.92449" lon="7.30054">
        <ele>210.67</ele>
        <time>2013-05-05T07:58:06Z</time>
      </trkpt>
      <trkpt lat="47.92453" lon="7.30055">
        <ele>210.67</ele>
        <time>2013-05-05T07:58:07Z</time>
      </trkpt>
      <trkpt lat="47.92483" lon="7.30068">
        <ele>211.15</ele>
        <time>2013-05-05T07:58:14Z</time>
      </trkpt>
      <trkpt lat="47.92493" lon="7.30072">
        <ele>211.15</ele>
        <time>2013-05-05T07:58:17Z</time>
      </trkpt>
      <trkpt lat="47.92511" lon="7.30063">
        <ele>210.19</ele>
        <time>2013-05-05T07:58:21Z</time>
      </trkpt>
      <trkpt lat="47.92534" lon="7.30048">
        <ele>209.22</ele>
        <time>2013-05-05T07:58:27Z</time>
      </trkpt>
      <trkpt lat="47.92559" lon="7.30037">
        <ele>208.26</ele>
        <time>2013-05-05T07:58:33Z</time>
      </trkpt>
      <trkpt lat="47.92577" lon="7.30034">
        <ele>208.26</ele>
        <time>2013-05-05T07:58:37Z</time>
      </trkpt>
      <trkpt lat="47.92628" lon="7.30047">
        <ele>208.26</ele>
        <time>2013-05-05T07:58:49Z</time>
      </trkpt>
      <trkpt lat="47.92665" lon="7.30073">
        <ele>209.22</ele>
        <time>2013-05-05T07:58:58Z</time>
      </trkpt>
      <trkpt lat="47.92683" lon="7.30095">
        <ele>210.67</ele>
        <time>2013-05-05T07:59:06Z</time>
      </trkpt>
      <trkpt lat="47.9266" lon="7.30143">
        <ele>211.63</ele>
        <time>2013-05-05T07:59:15Z</time>
      </trkpt>
      <trkpt lat="47.92634" lon="7.3021">
        <ele>213.07</ele>
        <time>2013-05-05T07:59:26Z</time>
      </trkpt>
      <trkpt lat="47.92612" lon="7.30273">
        <ele>213.55</ele>
        <time>2013-05-05T07:59:36Z</time>
      </trkpt>
      <trkpt lat="47.92593" lon="7.3034">
        <ele>214.03</ele>
        <time>2013-05-05T07:59:46Z</time>
      </trkpt>
      <trkpt lat="47.92576" lon="7.3037">
        <ele>214.03</ele>
        <time>2013-05-05T07:59:51Z</time>
      </trkpt>
      <trkpt lat="47.92532" lon="7.30422">
        <ele>213.07</ele>
        <time>2013-05-05T08:00:02Z</time>
      </trkpt>
      <trkpt lat="47.92521" lon="7.30439">
        <ele>212.59</ele>
        <time>2013-05-05T08:00:05Z</time>
      </trkpt>
      <trkpt lat="47.92513" lon="7.30461">
        <ele>212.11</ele>
        <time>2013-05-05T08:00:08Z</time>
      </trkpt>
      <trkpt lat="47.92507" lon="7.30494">
        <ele>211.63</ele>
        <time>2013-05-05T08:00:12Z</time>
      </trkpt>
      <trkpt lat="47.92497" lon="7.30595">
        <ele>211.63</ele>
        <time>2013-05-05T08:00:25Z</time>
      </trkpt>
      <trkpt lat="47.92496" lon="7.30705">
        <ele>211.15</ele>
        <time>2013-05-05T08:00:39Z</time>
      </trkpt>
      <trkpt lat="47.92497" lon="7.30758">
        <ele>211.15</ele>
        <time>2013-05-05T08:00:48Z</time>
      </trkpt>
      <trkpt lat="47.92497" lon="7.30765">
        <ele>211.15</ele>
        <time>2013-05-05T08:00:51Z</time>
      </trkpt>
      <trkpt lat="47.92482" lon="7.30776">
        <ele>210.19</ele>
        <time>2013-05-05T08:00:58Z</time>
      </trkpt>
      <trkpt lat="47.92454" lon="7.30773">
        <ele>209.22</ele>
        <time>2013-05-05T08:01:06Z</time>
      </trkpt>
      <trkpt lat="47.92415" lon="7.30766">
        <ele>208.74</ele>
        <time>2013-05-05T08:01:15Z</time>
      </trkpt>
      <trkpt lat="47.92365" lon="7.30749">
        <ele>208.74</ele>
        <time>2013-05-05T08:01:26Z</time>
      </trkpt>
      <trkpt lat="47.9233" lon="7.30737">
        <ele>207.78</ele>
        <time>2013-05-05T08:01:34Z</time>
      </trkpt>
      <trkpt lat="47.923" lon="7.30727">
        <ele>206.34</ele>
        <time>2013-05-05T08:01:41Z</time>
      </trkpt>
      <trkpt lat="47.92279" lon="7.30744">
        <ele>206.34</ele>
        <time>2013-05-05T08:01:47Z</time>
      </trkpt>
      <trkpt lat="47.92272" lon="7.30752">
        <ele>206.34</ele>
        <time>2013-05-05T08:01:49Z</time>
      </trkpt>
      <trkpt lat="47.92244" lon="7.30758">
        <ele>206.82</ele>
        <time>2013-05-05T08:01:58Z</time>
      </trkpt>
      <trkpt lat="47.92208" lon="7.30761">
        <ele>208.26</ele>
        <time>2013-05-05T08:02:09Z</time>
      </trkpt>
      <trkpt lat="47.92176" lon="7.30765">
        <ele>208.74</ele>
        <time>2013-05-05T08:02:19Z</time>
      </trkpt>
      <trkpt lat="47.92132" lon="7.30769">
        <ele>209.7</ele>
        <time>2013-05-05T08:02:31Z</time>
      </trkpt>
      <trkpt lat="47.92099" lon="7.30772">
        <ele>209.7</ele>
        <time>2013-05-05T08:02:41Z</time>
      </trkpt>
      <trkpt lat="47.92067" lon="7.30768">
        <ele>209.7</ele>
        <time>2013-05-05T08:02:50Z</time>
      </trkpt>
      <trkpt lat="47.9206" lon="7.3075">
        <ele>209.7</ele>
        <time>2013-05-05T08:02:54Z</time>
      </trkpt>
      <trkpt lat="47.92042" lon="7.30738">
        <ele>210.67</ele>
        <time>2013-05-05T08:03:01Z</time>
      </trkpt>
      <trkpt lat="47.92014" lon="7.30733">
        <ele>211.15</ele>
        <time>2013-05-05T08:03:09Z</time>
      </trkpt>
      <trkpt lat="47.92001" lon="7.30731">
        <ele>211.63</ele>
        <time>2013-05-05T08:03:12Z</time>
      </trkpt>
      <trkpt lat="47.91975" lon="7.3073">
        <ele>212.59</ele>
        <time>2013-05-05T08:03:18Z</time>
      </trkpt>
      <trkpt lat="47.91966" lon="7.3073">
        <ele>212.59</ele>
        <time>2013-05-05T08:03:20Z</time>
      </trkpt>
      <trkpt lat="47.91949" lon="7.3073">
        <ele>212.59</ele>
        <time>2013-05-05T08:03:24Z</time>
      </trkpt>
      <trkpt lat="47.91918" lon="7.30729">
        <ele>213.07</ele>
        <time>2013-05-05T08:03:32Z</time>
      </trkpt>
      <trkpt lat="47.91911" lon="7.30763">
        <ele>213.55</ele>
        <time>2013-05-05T08:03:39Z</time>
      </trkpt>
      <trkpt lat="47.91914" lon="7.30832">
        <ele>213.07</ele>
        <time>2013-05-05T08:03:51Z</time>
      </trkpt>
      <trkpt lat="47.91911" lon="7.30839">
        <ele>213.07</ele>
        <time>2013-05-05T08:03:53Z</time>
      </trkpt>
      <trkpt lat="47.91875" lon="7.30847">
        <ele>211.15</ele>
        <time>2013-05-05T08:04:03Z</time>
      </trkpt>
      <trkpt lat="47.91842" lon="7.3085">
        <ele>209.22</ele>
        <time>2013-05-05T08:04:11Z</time>
      </trkpt>
      <trkpt lat="47.91834" lon="7.30851">
        <ele>209.22</ele>
        <time>2013-05-05T08:04:13Z</time>
      </trkpt>
      <trkpt lat="47.91792" lon="7.30855">
        <ele>208.74</ele>
        <time>2013-05-05T08:04:23Z</time>
      </trkpt>
      <trkpt lat="47.91775" lon="7.30856">
        <ele>208.26</ele>
        <time>2013-05-05T08:04:27Z</time>
      </trkpt>
      <trkpt lat="47.91732" lon="7.30864">
        <ele>208.26</ele>
        <time>2013-05-05T08:04:37Z</time>
      </trkpt>
      <trkpt lat="47.91724" lon="7.30864">
        <ele>208.26</ele>
        <time>2013-05-05T08:04:39Z</time>
      </trkpt>
      <trkpt lat="47.91706" lon="7.30848">
        <ele>208.74</ele>
        <time>2013-05-05T08:04:44Z</time>
      </trkpt>
      <trkpt lat="47.91699" lon="7.30842">
        <ele>209.7</ele>
        <time>2013-05-05T08:04:46Z</time>
      </trkpt>
      <trkpt lat="47.91673" lon="7.30834">
        <ele>210.67</ele>
        <time>2013-05-05T08:04:52Z</time>
      </trkpt>
      <trkpt lat="47.91627" lon="7.30831">
        <ele>212.59</ele>
        <time>2013-05-05T08:05:02Z</time>
      </trkpt>
      <trkpt lat="47.9159" lon="7.30838">
        <ele>214.51</ele>
        <time>2013-05-05T08:05:13Z</time>
      </trkpt>
      <trkpt lat="47.9159" lon="7.30839">
        <ele>214.51</ele>
        <time>2013-05-05T08:05:23Z</time>
      </trkpt>
      <trkpt lat="47.91589" lon="7.3084">
        <ele>214.51</ele>
        <time>2013-05-05T08:05:42Z</time>
      </trkpt>
      <trkpt lat="47.91589" lon="7.30842">
        <ele>214.51</ele>
        <time>2013-05-05T08:06:00Z</time>
      </trkpt>
      <trkpt lat="47.91588" lon="7.30843">
        <ele>214.03</ele>
        <time>2013-05-05T08:06:01Z</time>
      </trkpt>
      <trkpt lat="47.91596" lon="7.3087">
        <ele>213.07</ele>
        <time>2013-05-05T08:06:10Z</time>
      </trkpt>
      <trkpt lat="47.91614" lon="7.30916">
        <ele>214.03</ele>
        <time>2013-05-05T08:06:20Z</time>
      </trkpt>
      <trkpt lat="47.91629" lon="7.30956">
        <ele>213.55</ele>
        <time>2013-05-05T08:06:30Z</time>
      </trkpt>
      <trkpt lat="47.91647" lon="7.30998">
        <ele>213.07</ele>
        <time>2013-05-05T08:06:41Z</time>
      </trkpt>
      <trkpt lat="47.91659" lon="7.31043">
        <ele>212.11</ele>
        <time>2013-05-05T08:06:51Z</time>
      </trkpt>
      <trkpt lat="47.91665" lon="7.31081">
        <ele>210.67</ele>
        <time>2013-05-05T08:06:59Z</time>
      </trkpt>
      <trkpt lat="47.91673" lon="7.31135">
        <ele>211.15</ele>
        <time>2013-05-05T08:07:10Z</time>
      </trkpt>
      <trkpt lat="47.91679" lon="7.31196">
        <ele>212.59</ele>
        <time>2013-05-05T08:07:22Z</time>
      </trkpt>
      <trkpt lat="47.91685" lon="7.31238">
        <ele>214.03</ele>
        <time>2013-05-05T08:07:30Z</time>
      </trkpt>
      <trkpt lat="47.91698" lon="7.3127">
        <ele>214.03</ele>
        <time>2013-05-05T08:07:37Z</time>
      </trkpt>
      <trkpt lat="47.91713" lon="7.31296">
        <ele>213.55</ele>
        <time>2013-05-05T08:07:47Z</time>
      </trkpt>
      <trkpt lat="47.91718" lon="7.31302">
        <ele>213.07</ele>
        <time>2013-05-05T08:07:54Z</time>
      </trkpt>
      <trkpt lat="47.91726" lon="7.31319">
        <ele>210.67</ele>
        <time>2013-05-05T08:08:03Z</time>
      </trkpt>
      <trkpt lat="47.91735" lon="7.31346">
        <ele>206.34</ele>
        <time>2013-05-05T08:08:12Z</time>
      </trkpt>
      <trkpt lat="47.91749" lon="7.31372">
        <ele>207.3</ele>
        <time>2013-05-05T08:08:21Z</time>
      </trkpt>
      <trkpt lat="47.91755" lon="7.31376">
        <ele>208.26</ele>
        <time>2013-05-05T08:08:24Z</time>
      </trkpt>
      <trkpt lat="47.91743" lon="7.31387">
        <ele>207.78</ele>
        <time>2013-05-05T08:08:33Z</time>
      </trkpt>
      <trkpt lat="47.91716" lon="7.314">
        <ele>203.94</ele>
        <time>2013-05-05T08:08:43Z</time>
      </trkpt>
      <trkpt lat="47.91682" lon="7.31408">
        <ele>202.49</ele>
        <time>2013-05-05T08:08:54Z</time>
      </trkpt>
      <trkpt lat="47.91668" lon="7.31408">
        <ele>201.53</ele>
        <time>2013-05-05T08:08:59Z</time>
      </trkpt>
      <trkpt lat="47.91662" lon="7.31407">
        <ele>200.57</ele>
        <time>2013-05-05T08:09:01Z</time>
      </trkpt>
      <trkpt lat="47.91648" lon="7.31406">
        <ele>200.09</ele>
        <time>2013-05-05T08:09:06Z</time>
      </trkpt>
      <trkpt lat="47.9162" lon="7.31408">
        <ele>200.09</ele>
        <time>2013-05-05T08:09:16Z</time>
      </trkpt>
      <trkpt lat="47.916" lon="7.3141">
        <ele>201.05</ele>
        <time>2013-05-05T08:09:22Z</time>
      </trkpt>
      <trkpt lat="47.91595" lon="7.31412">
        <ele>201.53</ele>
        <time>2013-05-05T08:09:24Z</time>
      </trkpt>
      <trkpt lat="47.91561" lon="7.3143">
        <ele>202.01</ele>
        <time>2013-05-05T08:09:35Z</time>
      </trkpt>
      <trkpt lat="47.9153" lon="7.31445">
        <ele>202.01</ele>
        <time>2013-05-05T08:09:45Z</time>
      </trkpt>
      <trkpt lat="47.91502" lon="7.31454">
        <ele>201.53</ele>
        <time>2013-05-05T08:09:54Z</time>
      </trkpt>
      <trkpt lat="47.9148" lon="7.31459">
        <ele>200.09</ele>
        <time>2013-05-05T08:10:01Z</time>
      </trkpt>
      <trkpt lat="47.91454" lon="7.31458">
        <ele>198.17</ele>
        <time>2013-05-05T08:10:09Z</time>
      </trkpt>
      <trkpt lat="47.91426" lon="7.31457">
        <ele>193.84</ele>
        <time>2013-05-05T08:10:17Z</time>
      </trkpt>
      <trkpt lat="47.91398" lon="7.31466">
        <ele>187.59</ele>
        <time>2013-05-05T08:10:26Z</time>
      </trkpt>
      <trkpt lat="47.91378" lon="7.31466">
        <ele>188.56</ele>
        <time>2013-05-05T08:10:33Z</time>
      </trkpt>
      <trkpt lat="47.91351" lon="7.31465">
        <ele>184.71</ele>
        <time>2013-05-05T08:10:41Z</time>
      </trkpt>
      <trkpt lat="47.91322" lon="7.31452">
        <ele>184.23</ele>
        <time>2013-05-05T08:10:49Z</time>
      </trkpt>
      <trkpt lat="47.91303" lon="7.31444">
        <ele>183.75</ele>
        <time>2013-05-05T08:10:55Z</time>
      </trkpt>
      <trkpt lat="47.91276" lon="7.31446">
        <ele>182.31</ele>
        <time>2013-05-05T08:11:04Z</time>
      </trkpt>
      <trkpt lat="47.9127" lon="7.31463">
        <ele>186.63</ele>
        <time>2013-05-05T08:11:10Z</time>
      </trkpt>
      <trkpt lat="47.91273" lon="7.31516">
        <ele>190</ele>
        <time>2013-05-05T08:11:21Z</time>
      </trkpt>
      <trkpt lat="47.91271" lon="7.31562">
        <ele>189.52</ele>
        <time>2013-05-05T08:11:29Z</time>
      </trkpt>
      <trkpt lat="47.91274" lon="7.31607">
        <ele>189.52</ele>
        <time>2013-05-05T08:11:36Z</time>
      </trkpt>
      <trkpt lat="47.91274" lon="7.3165">
        <ele>192.4</ele>
        <time>2013-05-05T08:11:44Z</time>
      </trkpt>
      <trkpt lat="47.9127" lon="7.31663">
        <ele>193.36</ele>
        <time>2013-05-05T08:11:46Z</time>
      </trkpt>
      <trkpt lat="47.91247" lon="7.31682">
        <ele>195.77</ele>
        <time>2013-05-05T08:11:52Z</time>
      </trkpt>
      <trkpt lat="47.91203" lon="7.31694">
        <ele>196.73</ele>
        <time>2013-05-05T08:12:03Z</time>
      </trkpt>
      <trkpt lat="47.91192" lon="7.31694">
        <ele>196.73</ele>
        <time>2013-05-05T08:12:06Z</time>
      </trkpt>
      <trkpt lat="47.91146" lon="7.31695">
        <ele>196.73</ele>
        <time>2013-05-05T08:12:17Z</time>
      </trkpt>
      <trkpt lat="47.91106" lon="7.31699">
        <ele>197.21</ele>
        <time>2013-05-05T08:12:26Z</time>
      </trkpt>
      <trkpt lat="47.91089" lon="7.31699">
        <ele>197.69</ele>
        <time>2013-05-05T08:12:30Z</time>
      </trkpt>
      <trkpt lat="47.91057" lon="7.31694">
        <ele>199.61</ele>
        <time>2013-05-05T08:12:37Z</time>
      </trkpt>
      <trkpt lat="47.91032" lon="7.31693">
        <ele>199.61</ele>
        <time>2013-05-05T08:12:42Z</time>
      </trkpt>
      <trkpt lat="47.90994" lon="7.31698">
        <ele>198.65</ele>
        <time>2013-05-05T08:12:50Z</time>
      </trkpt>
      <trkpt lat="47.90975" lon="7.31701">
        <ele>197.69</ele>
        <time>2013-05-05T08:12:54Z</time>
      </trkpt>
      <trkpt lat="47.90939" lon="7.31702">
        <ele>197.21</ele>
        <time>2013-05-05T08:13:01Z</time>
      </trkpt>
      <trkpt lat="47.90924" lon="7.31704">
        <ele>196.25</ele>
        <time>2013-05-05T08:13:04Z</time>
      </trkpt>
      <trkpt lat="47.90895" lon="7.31706">
        <ele>195.28</ele>
        <time>2013-05-05T08:13:10Z</time>
      </trkpt>
      <trkpt lat="47.90877" lon="7.31708">
        <ele>195.28</ele>
        <time>2013-05-05T08:13:14Z</time>
      </trkpt>
      <trkpt lat="47.90841" lon="7.31708">
        <ele>195.77</ele>
        <time>2013-05-05T08:13:21Z</time>
      </trkpt>
      <trkpt lat="47.90799" lon="7.31712">
        <ele>197.21</ele>
        <time>2013-05-05T08:13:31Z</time>
      </trkpt>
      <trkpt lat="47.90755" lon="7.31708">
        <ele>198.65</ele>
        <time>2013-05-05T08:13:40Z</time>
      </trkpt>
      <trkpt lat="47.90712" lon="7.31708">
        <ele>201.05</ele>
        <time>2013-05-05T08:13:49Z</time>
      </trkpt>
      <trkpt lat="47.90667" lon="7.31709">
        <ele>201.53</ele>
        <time>2013-05-05T08:13:58Z</time>
      </trkpt>
      <trkpt lat="47.90662" lon="7.31709">
        <ele>202.01</ele>
        <time>2013-05-05T08:13:59Z</time>
      </trkpt>
      <trkpt lat="47.9061" lon="7.3171">
        <ele>203.46</ele>
        <time>2013-05-05T08:14:09Z</time>
      </trkpt>
      <trkpt lat="47.906" lon="7.31711">
        <ele>203.46</ele>
        <time>2013-05-05T08:14:11Z</time>
      </trkpt>
      <trkpt lat="47.90553" lon="7.31713">
        <ele>203.94</ele>
        <time>2013-05-05T08:14:21Z</time>
      </trkpt>
      <trkpt lat="47.90525" lon="7.31709">
        <ele>207.78</ele>
        <time>2013-05-05T08:14:29Z</time>
      </trkpt>
      <trkpt lat="47.90482" lon="7.3171">
        <ele>208.74</ele>
        <time>2013-05-05T08:14:40Z</time>
      </trkpt>
      <trkpt lat="47.90447" lon="7.31702">
        <ele>208.26</ele>
        <time>2013-05-05T08:14:48Z</time>
      </trkpt>
      <trkpt lat="47.90404" lon="7.3169">
        <ele>208.74</ele>
        <time>2013-05-05T08:14:58Z</time>
      </trkpt>
      <trkpt lat="47.90371" lon="7.31677">
        <ele>208.74</ele>
        <time>2013-05-05T08:15:07Z</time>
      </trkpt>
      <trkpt lat="47.90336" lon="7.31675">
        <ele>208.26</ele>
        <time>2013-05-05T08:15:17Z</time>
      </trkpt>
      <trkpt lat="47.9031" lon="7.31667">
        <ele>208.74</ele>
        <time>2013-05-05T08:15:24Z</time>
      </trkpt>
      <trkpt lat="47.90272" lon="7.31651">
        <ele>209.22</ele>
        <time>2013-05-05T08:15:33Z</time>
      </trkpt>
      <trkpt lat="47.90239" lon="7.31643">
        <ele>208.26</ele>
        <time>2013-05-05T08:15:42Z</time>
      </trkpt>
      <trkpt lat="47.90206" lon="7.3163">
        <ele>209.22</ele>
        <time>2013-05-05T08:15:51Z</time>
      </trkpt>
      <trkpt lat="47.90168" lon="7.3162">
        <ele>209.7</ele>
        <time>2013-05-05T08:16:02Z</time>
      </trkpt>
      <trkpt lat="47.90166" lon="7.31618">
        <ele>209.22</ele>
        <time>2013-05-05T08:16:03Z</time>
      </trkpt>
      <trkpt lat="47.9017" lon="7.31602">
        <ele>207.3</ele>
        <time>2013-05-05T08:16:08Z</time>
      </trkpt>
      <trkpt lat="47.90195" lon="7.31547">
        <ele>201.53</ele>
        <time>2013-05-05T08:16:20Z</time>
      </trkpt>
      <trkpt lat="47.90229" lon="7.31506">
        <ele>197.69</ele>
        <time>2013-05-05T08:16:30Z</time>
      </trkpt>
      <trkpt lat="47.90261" lon="7.31467">
        <ele>196.73</ele>
        <time>2013-05-05T08:16:38Z</time>
      </trkpt>
      <trkpt lat="47.90284" lon="7.3143">
        <ele>199.13</ele>
        <time>2013-05-05T08:16:46Z</time>
      </trkpt>
      <trkpt lat="47.90297" lon="7.31411">
        <ele>202.98</ele>
        <time>2013-05-05T08:16:51Z</time>
      </trkpt>
      <trkpt lat="47.9033" lon="7.31362">
        <ele>204.42</ele>
        <time>2013-05-05T08:17:02Z</time>
      </trkpt>
      <trkpt lat="47.90358" lon="7.31318">
        <ele>207.78</ele>
        <time>2013-05-05T08:17:13Z</time>
      </trkpt>
      <trkpt lat="47.9037" lon="7.31284">
        <ele>208.26</ele>
        <time>2013-05-05T08:17:23Z</time>
      </trkpt>
      <trkpt lat="47.9037" lon="7.31281">
        <ele>208.26</ele>
        <time>2013-05-05T08:17:24Z</time>
      </trkpt>
      <trkpt lat="47.90356" lon="7.31247">
        <ele>204.9</ele>
        <time>2013-05-05T08:17:34Z</time>
      </trkpt>
      <trkpt lat="47.90341" lon="7.31215">
        <ele>203.46</ele>
        <time>2013-05-05T08:17:40Z</time>
      </trkpt>
      <trkpt lat="47.90337" lon="7.31204">
        <ele>202.98</ele>
        <time>2013-05-05T08:17:42Z</time>
      </trkpt>
      <trkpt lat="47.90328" lon="7.31163">
        <ele>203.94</ele>
        <time>2013-05-05T08:17:49Z</time>
      </trkpt>
      <trkpt lat="47.90332" lon="7.31147">
        <ele>204.9</ele>
        <time>2013-05-05T08:17:52Z</time>
      </trkpt>
      <trkpt lat="47.90358" lon="7.31106">
        <ele>206.82</ele>
        <time>2013-05-05T08:18:03Z</time>
      </trkpt>
      <trkpt lat="47.90373" lon="7.31121">
        <ele>205.86</ele>
        <time>2013-05-05T08:18:11Z</time>
      </trkpt>
      <trkpt lat="47.90375" lon="7.31125">
        <ele>205.38</ele>
        <time>2013-05-05T08:18:12Z</time>
      </trkpt>
      <trkpt lat="47.90391" lon="7.3116">
        <ele>203.46</ele>
        <time>2013-05-05T08:18:21Z</time>
      </trkpt>
      <trkpt lat="47.90399" lon="7.31176">
        <ele>202.98</ele>
        <time>2013-05-05T08:18:25Z</time>
      </trkpt>
      <trkpt lat="47.90407" lon="7.3119">
        <ele>201.53</ele>
        <time>2013-05-05T08:18:29Z</time>
      </trkpt>
      <trkpt lat="47.90425" lon="7.31234">
        <ele>200.09</ele>
        <time>2013-05-05T08:18:40Z</time>
      </trkpt>
      <trkpt lat="47.90445" lon="7.31275">
        <ele>198.65</ele>
        <time>2013-05-05T08:18:50Z</time>
      </trkpt>
      <trkpt lat="47.90455" lon="7.31299">
        <ele>197.21</ele>
        <time>2013-05-05T08:18:57Z</time>
      </trkpt>
      <trkpt lat="47.90471" lon="7.31325">
        <ele>193.84</ele>
        <time>2013-05-05T08:19:07Z</time>
      </trkpt>
      <trkpt lat="47.90492" lon="7.31334">
        <ele>191.92</ele>
        <time>2013-05-05T08:19:16Z</time>
      </trkpt>
      <trkpt lat="47.90505" lon="7.31338">
        <ele>190</ele>
        <time>2013-05-05T08:19:22Z</time>
      </trkpt>
      <trkpt lat="47.90532" lon="7.31353">
        <ele>190</ele>
        <time>2013-05-05T08:19:32Z</time>
      </trkpt>
      <trkpt lat="47.90557" lon="7.31367">
        <ele>190.96</ele>
        <time>2013-05-05T08:19:42Z</time>
      </trkpt>
      <trkpt lat="47.90578" lon="7.31377">
        <ele>192.4</ele>
        <time>2013-05-05T08:19:51Z</time>
      </trkpt>
      <trkpt lat="47.90588" lon="7.31383">
        <ele>192.88</ele>
        <time>2013-05-05T08:19:55Z</time>
      </trkpt>
      <trkpt lat="47.90617" lon="7.31357">
        <ele>195.77</ele>
        <time>2013-05-05T08:20:05Z</time>
      </trkpt>
      <trkpt lat="47.9064" lon="7.31329">
        <ele>198.17</ele>
        <time>2013-05-05T08:20:13Z</time>
      </trkpt>
      <trkpt lat="47.90661" lon="7.31296">
        <ele>200.09</ele>
        <time>2013-05-05T08:20:22Z</time>
      </trkpt>
      <trkpt lat="47.90679" lon="7.31262">
        <ele>200.57</ele>
        <time>2013-05-05T08:20:31Z</time>
      </trkpt>
      <trkpt lat="47.90681" lon="7.31254">
        <ele>201.05</ele>
        <time>2013-05-05T08:20:33Z</time>
      </trkpt>
      <trkpt lat="47.90684" lon="7.31194">
        <ele>205.38</ele>
        <time>2013-05-05T08:20:44Z</time>
      </trkpt>
      <trkpt lat="47.90687" lon="7.31146">
        <ele>205.86</ele>
        <time>2013-05-05T08:20:53Z</time>
      </trkpt>
      <trkpt lat="47.9069" lon="7.31097">
        <ele>204.9</ele>
        <time>2013-05-05T08:21:02Z</time>
      </trkpt>
      <trkpt lat="47.90694" lon="7.31037">
        <ele>202.98</ele>
        <time>2013-05-05T08:21:13Z</time>
      </trkpt>
      <trkpt lat="47.90697" lon="7.30984">
        <ele>203.46</ele>
        <time>2013-05-05T08:21:23Z</time>
      </trkpt>
      <trkpt lat="47.90701" lon="7.30929">
        <ele>203.94</ele>
        <time>2013-05-05T08:21:33Z</time>
      </trkpt>
      <trkpt lat="47.90703" lon="7.30873">
        <ele>203.94</ele>
        <time>2013-05-05T08:21:43Z</time>
      </trkpt>
      <trkpt lat="47.90707" lon="7.30826">
        <ele>206.34</ele>
        <time>2013-05-05T08:21:53Z</time>
      </trkpt>
      <trkpt lat="47.90711" lon="7.30821">
        <ele>206.82</ele>
        <time>2013-05-05T08:21:55Z</time>
      </trkpt>
      <trkpt lat="47.9072" lon="7.30824">
        <ele>208.26</ele>
        <time>2013-05-05T08:22:03Z</time>
      </trkpt>
      <trkpt lat="47.90722" lon="7.30826">
        <ele>211.63</ele>
        <time>2013-05-05T08:22:15Z</time>
      </trkpt>
      <trkpt lat="47.90722" lon="7.30826">
        <ele>212.59</ele>
        <time>2013-05-05T08:22:33Z</time>
      </trkpt>
      <trkpt lat="47.90722" lon="7.30826">
        <ele>212.59</ele>
        <time>2013-05-05T08:22:38Z</time>
      </trkpt>
      <trkpt lat="47.90733" lon="7.30842">
        <ele>213.55</ele>
        <time>2013-05-05T08:22:46Z</time>
      </trkpt>
      <trkpt lat="47.90759" lon="7.30876">
        <ele>213.07</ele>
        <time>2013-05-05T08:22:55Z</time>
      </trkpt>
      <trkpt lat="47.90773" lon="7.30889">
        <ele>212.11</ele>
        <time>2013-05-05T08:22:59Z</time>
      </trkpt>
      <trkpt lat="47.90826" lon="7.30922">
        <ele>210.67</ele>
        <time>2013-05-05T08:23:12Z</time>
      </trkpt>
      <trkpt lat="47.90839" lon="7.30931">
        <ele>210.67</ele>
        <time>2013-05-05T08:23:15Z</time>
      </trkpt>
      <trkpt lat="47.9088" lon="7.30954">
        <ele>213.07</ele>
        <time>2013-05-05T08:23:24Z</time>
      </trkpt>
      <trkpt lat="47.90902" lon="7.30963">
        <ele>214.99</ele>
        <time>2013-05-05T08:23:29Z</time>
      </trkpt>
      <trkpt lat="47.90935" lon="7.3096">
        <ele>215.47</ele>
        <time>2013-05-05T08:23:36Z</time>
      </trkpt>
      <trkpt lat="47.90945" lon="7.30959">
        <ele>215.95</ele>
        <time>2013-05-05T08:23:38Z</time>
      </trkpt>
      <trkpt lat="47.90954" lon="7.30959">
        <ele>215.95</ele>
        <time>2013-05-05T08:23:40Z</time>
      </trkpt>
      <trkpt lat="47.91" lon="7.30957">
        <ele>214.03</ele>
        <time>2013-05-05T08:23:50Z</time>
      </trkpt>
      <trkpt lat="47.91039" lon="7.30955">
        <ele>211.15</ele>
        <time>2013-05-05T08:23:59Z</time>
      </trkpt>
      <trkpt lat="47.91058" lon="7.30951">
        <ele>210.67</ele>
        <time>2013-05-05T08:24:04Z</time>
      </trkpt>
      <trkpt lat="47.91062" lon="7.30915">
        <ele>211.15</ele>
        <time>2013-05-05T08:24:11Z</time>
      </trkpt>
      <trkpt lat="47.91062" lon="7.30909">
        <ele>211.15</ele>
        <time>2013-05-05T08:24:12Z</time>
      </trkpt>
      <trkpt lat="47.91064" lon="7.30891">
        <ele>210.67</ele>
        <time>2013-05-05T08:24:15Z</time>
      </trkpt>
      <trkpt lat="47.91074" lon="7.3083">
        <ele>208.74</ele>
        <time>2013-05-05T08:24:25Z</time>
      </trkpt>
      <trkpt lat="47.91075" lon="7.30824">
        <ele>208.74</ele>
        <time>2013-05-05T08:24:26Z</time>
      </trkpt>
      <trkpt lat="47.91085" lon="7.30755">
        <ele>207.3</ele>
        <time>2013-05-05T08:24:37Z</time>
      </trkpt>
      <trkpt lat="47.91086" lon="7.30749">
        <ele>207.78</ele>
        <time>2013-05-05T08:24:38Z</time>
      </trkpt>
      <trkpt lat="47.91095" lon="7.30689">
        <ele>209.7</ele>
        <time>2013-05-05T08:24:48Z</time>
      </trkpt>
      <trkpt lat="47.91097" lon="7.30676">
        <ele>209.7</ele>
        <time>2013-05-05T08:24:50Z</time>
      </trkpt>
      <trkpt lat="47.91098" lon="7.30664">
        <ele>209.7</ele>
        <time>2013-05-05T08:24:52Z</time>
      </trkpt>
      <trkpt lat="47.91105" lon="7.3061">
        <ele>210.19</ele>
        <time>2013-05-05T08:25:01Z</time>
      </trkpt>
      <trkpt lat="47.91111" lon="7.30569">
        <ele>210.19</ele>
        <time>2013-05-05T08:25:08Z</time>
      </trkpt>
      <trkpt lat="47.91117" lon="7.30525">
        <ele>211.15</ele>
        <time>2013-05-05T08:25:15Z</time>
      </trkpt>
      <trkpt lat="47.91126" lon="7.30453">
        <ele>211.15</ele>
        <time>2013-05-05T08:25:27Z</time>
      </trkpt>
      <trkpt lat="47.91133" lon="7.30412">
        <ele>209.22</ele>
        <time>2013-05-05T08:25:35Z</time>
      </trkpt>
      <trkpt lat="47.91133" lon="7.30406">
        <ele>209.22</ele>
        <time>2013-05-05T08:25:36Z</time>
      </trkpt>
      <trkpt lat="47.91136" lon="7.30382">
        <ele>208.26</ele>
        <time>2013-05-05T08:25:40Z</time>
      </trkpt>
      <trkpt lat="47.91137" lon="7.30369">
        <ele>208.26</ele>
        <time>2013-05-05T08:25:42Z</time>
      </trkpt>
      <trkpt lat="47.91142" lon="7.30343">
        <ele>207.78</ele>
        <time>2013-05-05T08:25:46Z</time>
      </trkpt>
      <trkpt lat="47.91145" lon="7.30316">
        <ele>207.78</ele>
        <time>2013-05-05T08:25:50Z</time>
      </trkpt>
      <trkpt lat="47.91149" lon="7.30289">
        <ele>207.78</ele>
        <time>2013-05-05T08:25:54Z</time>
      </trkpt>
      <trkpt lat="47.91157" lon="7.30221">
        <ele>209.22</ele>
        <time>2013-05-05T08:26:05Z</time>
      </trkpt>
      <trkpt lat="47.91158" lon="7.30216">
        <ele>209.22</ele>
        <time>2013-05-05T08:26:06Z</time>
      </trkpt>
      <trkpt lat="47.91171" lon="7.30214">
        <ele>210.19</ele>
        <time>2013-05-05T08:26:10Z</time>
      </trkpt>
      <trkpt lat="47.91219" lon="7.3024">
        <ele>211.63</ele>
        <time>2013-05-05T08:26:21Z</time>
      </trkpt>
      <trkpt lat="47.91224" lon="7.30243">
        <ele>211.63</ele>
        <time>2013-05-05T08:26:22Z</time>
      </trkpt>
      <trkpt lat="47.91258" lon="7.30259">
        <ele>212.11</ele>
        <time>2013-05-05T08:26:30Z</time>
      </trkpt>
      <trkpt lat="47.91295" lon="7.30277">
        <ele>212.11</ele>
        <time>2013-05-05T08:26:39Z</time>
      </trkpt>
      <trkpt lat="47.9131" lon="7.30284">
        <ele>212.11</ele>
        <time>2013-05-05T08:26:44Z</time>
      </trkpt>
      <trkpt lat="47.91325" lon="7.30245">
        <ele>213.55</ele>
        <time>2013-05-05T08:26:52Z</time>
      </trkpt>
      <trkpt lat="47.9133" lon="7.30226">
        <ele>213.55</ele>
        <time>2013-05-05T08:26:55Z</time>
      </trkpt>
      <trkpt lat="47.91332" lon="7.30213">
        <ele>213.55</ele>
        <time>2013-05-05T08:26:57Z</time>
      </trkpt>
      <trkpt lat="47.91332" lon="7.30199">
        <ele>213.55</ele>
        <time>2013-05-05T08:26:59Z</time>
      </trkpt>
      <trkpt lat="47.91317" lon="7.30129">
        <ele>213.55</ele>
        <time>2013-05-05T08:27:09Z</time>
      </trkpt>
      <trkpt lat="47.91298" lon="7.30066">
        <ele>213.07</ele>
        <time>2013-05-05T08:27:18Z</time>
      </trkpt>
      <trkpt lat="47.91276" lon="7.29998">
        <ele>213.55</ele>
        <time>2013-05-05T08:27:28Z</time>
      </trkpt>
      <trkpt lat="47.91252" lon="7.29909">
        <ele>216.91</ele>
        <time>2013-05-05T08:27:40Z</time>
      </trkpt>
      <trkpt lat="47.91236" lon="7.29823">
        <ele>218.84</ele>
        <time>2013-05-05T08:27:51Z</time>
      </trkpt>
      <trkpt lat="47.91225" lon="7.2976">
        <ele>219.8</ele>
        <time>2013-05-05T08:27:59Z</time>
      </trkpt>
      <trkpt lat="47.91219" lon="7.2971">
        <ele>221.72</ele>
        <time>2013-05-05T08:28:05Z</time>
      </trkpt>
      <trkpt lat="47.91218" lon="7.29685">
        <ele>222.2</ele>
        <time>2013-05-05T08:28:08Z</time>
      </trkpt>
      <trkpt lat="47.91216" lon="7.29663">
        <ele>222.68</ele>
        <time>2013-05-05T08:28:11Z</time>
      </trkpt>
      <trkpt lat="47.91213" lon="7.2964">
        <ele>223.16</ele>
        <time>2013-05-05T08:28:14Z</time>
      </trkpt>
      <trkpt lat="47.91209" lon="7.29626">
        <ele>223.16</ele>
        <time>2013-05-05T08:28:16Z</time>
      </trkpt>
      <trkpt lat="47.91177" lon="7.29547">
        <ele>221.24</ele>
        <time>2013-05-05T08:28:27Z</time>
      </trkpt>
      <trkpt lat="47.91153" lon="7.29499">
        <ele>220.76</ele>
        <time>2013-05-05T08:28:34Z</time>
      </trkpt>
      <trkpt lat="47.9114" lon="7.29474">
        <ele>222.2</ele>
        <time>2013-05-05T08:28:38Z</time>
      </trkpt>
      <trkpt lat="47.91126" lon="7.29447">
        <ele>223.64</ele>
        <time>2013-05-05T08:28:42Z</time>
      </trkpt>
      <trkpt lat="47.91098" lon="7.29384">
        <ele>225.57</ele>
        <time>2013-05-05T08:28:51Z</time>
      </trkpt>
      <trkpt lat="47.91093" lon="7.29352">
        <ele>225.57</ele>
        <time>2013-05-05T08:28:55Z</time>
      </trkpt>
      <trkpt lat="47.91097" lon="7.29309">
        <ele>225.09</ele>
        <time>2013-05-05T08:29:00Z</time>
      </trkpt>
      <trkpt lat="47.91105" lon="7.29289">
        <ele>225.09</ele>
        <time>2013-05-05T08:29:03Z</time>
      </trkpt>
      <trkpt lat="47.91115" lon="7.2927">
        <ele>225.09</ele>
        <time>2013-05-05T08:29:06Z</time>
      </trkpt>
      <trkpt lat="47.91117" lon="7.29239">
        <ele>226.05</ele>
        <time>2013-05-05T08:29:10Z</time>
      </trkpt>
      <trkpt lat="47.91102" lon="7.29193">
        <ele>228.45</ele>
        <time>2013-05-05T08:29:17Z</time>
      </trkpt>
      <trkpt lat="47.91107" lon="7.29167">
        <ele>229.89</ele>
        <time>2013-05-05T08:29:23Z</time>
      </trkpt>
      <trkpt lat="47.91122" lon="7.29162">
        <ele>228.93</ele>
        <time>2013-05-05T08:29:34Z</time>
      </trkpt>
      <trkpt lat="47.91123" lon="7.29169">
        <ele>227.01</ele>
        <time>2013-05-05T08:29:51Z</time>
      </trkpt>
    </trkseg>
  </trk>
</gpx>